»·PEaware :: N634CZ KVCV-KCRQ

N634CZ :: KVCV-KCRQ

FLIGHT INFORMATION

Flight Status: Arrived
Operator: Privately registered:
United States
More flights under this callsign
Pilot: Greg L. (27107)
Aircraft: CESSNA 172 SKYHAWK
(C172)
More flights by this aircraft type
Origin: KVCV Socal Logistics
United States
Destination: KCRQ McClellan-Palomar
United States
More flights between these airports :: More routes between these airports
Route: +APLES V442 PDZ V186 ROBNN V208 OCN
File this flight plan on PilotEdge
Remarks:
Altitude:
(Current/Filed)
8,000ft
Speed:
(Current/Filed)
110kts
Departed: 12-Sep-20 12:42 PM
Arrived: 12-Sep-20 01:44 PM
Distance/Time
Traveled:
88nm/1:02
Distance/Time
To Go:
Arrived

Flight Plot

Page will automatically refresh every two minutes.

Flight plan parsing failed; only flown route is shown


Map Options




Map Legend


Flown Route
Filed Route
Departure Airport
Arrival Airport
Navaid (VOR, NDB)
Fix

Horizontal Profiles

Position Reports

Time Latitude Longitude Heading Altitude Ground
Speed
12-Sep-20 12:01 34.587708 -117.375743 308 2876ft 0kts
12-Sep-20 12:02 34.587708 -117.375743 308 2876ft 0kts
12-Sep-20 12:03 34.587708 -117.375743 308 2876ft 0kts
12-Sep-20 12:04 34.587708 -117.375743 308 2876ft 0kts
12-Sep-20 12:05 34.587708 -117.375743 308 2876ft 0kts
12-Sep-20 12:06 34.587708 -117.375743 308 2876ft 0kts
12-Sep-20 12:07 34.587708 -117.375743 308 2876ft 0kts
12-Sep-20 12:08 34.587708 -117.375743 308 2876ft 0kts
12-Sep-20 12:09 34.587708 -117.375743 308 2876ft 0kts
12-Sep-20 12:10 34.587708 -117.375743 308 2876ft 0kts
12-Sep-20 12:11 34.587708 -117.375743 308 2876ft 0kts
12-Sep-20 12:12 34.587708 -117.375743 308 2876ft 0kts
12-Sep-20 12:13 34.587708 -117.375743 308 2876ft 0kts
12-Sep-20 12:14 34.587708 -117.375743 308 2876ft 0kts
12-Sep-20 12:15 34.587708 -117.375743 308 2876ft 0kts
12-Sep-20 12:16 34.587708 -117.375743 308 2876ft 0kts
12-Sep-20 12:17 34.587708 -117.375743 308 2876ft 0kts
12-Sep-20 12:18 34.587708 -117.375743 308 2876ft 0kts
12-Sep-20 12:19 34.587708 -117.375743 308 2876ft 0kts
12-Sep-20 12:20 34.587708 -117.375743 308 2876ft 0kts
12-Sep-20 12:21 34.587708 -117.375743 308 2876ft 0kts
12-Sep-20 12:22 34.587708 -117.375743 308 2876ft 0kts
12-Sep-20 12:23 34.587708 -117.375743 308 2876ft 0kts
12-Sep-20 12:24 34.587708 -117.375743 308 2876ft 0kts
12-Sep-20 12:25 34.587708 -117.375743 308 2876ft 0kts
12-Sep-20 12:26 34.587708 -117.375743 308 2876ft 0kts
12-Sep-20 12:27 34.587708 -117.375743 308 2876ft 0kts
12-Sep-20 12:28 34.587708 -117.375743 308 2876ft 0kts
12-Sep-20 12:29 34.587708 -117.375743 308 2876ft 0kts
12-Sep-20 12:30 34.587825 -117.375889 321 2876ft 8kts
12-Sep-20 12:31 34.589261 -117.376690 348 2872ft 11kts
12-Sep-20 12:32 34.591709 -117.374206 44 2867ft 12kts
12-Sep-20 12:33 34.593285 -117.370292 88 2865ft 12kts
12-Sep-20 12:34 34.594864 -117.367618 10 2860ft 15kts
12-Sep-20 12:35 34.599128 -117.366623 10 2851ft 3kts
12-Sep-20 12:36 34.599143 -117.366620 10 2851ft 0kts
12-Sep-20 12:37 34.599143 -117.366620 10 2851ft 0kts
12-Sep-20 12:38 34.599143 -117.366620 10 2851ft 0kts
12-Sep-20 12:39 34.599171 -117.366614 9 2851ft 0kts
12-Sep-20 12:40 34.599266 -117.366598 8 2851ft 6kts
12-Sep-20 12:41 34.594625 -117.374074 223 3032ft 76kts
12-Sep-20 12:42 34.588564 -117.398472 265 3866ft 80kts
12-Sep-20 12:43 34.586661 -117.425728 261 4673ft 80kts
12-Sep-20 12:44 34.583148 -117.453909 265 5409ft 96kts
12-Sep-20 12:45 34.580513 -117.485863 265 6222ft 94kts
12-Sep-20 12:46 34.578030 -117.512515 265 7097ft 76kts
12-Sep-20 12:47 34.575417 -117.542433 265 7638ft 99kts
12-Sep-20 12:48 34.569423 -117.574781 215 8142ft 114kts
12-Sep-20 12:49 34.539304 -117.563264 146 8137ft 121kts
12-Sep-20 12:50 34.510453 -117.541851 145 8137ft 121kts
12-Sep-20 12:51 34.481583 -117.520479 146 8137ft 121kts
12-Sep-20 12:52 34.452710 -117.499176 146 8137ft 121kts
12-Sep-20 12:53 34.423733 -117.477865 146 8137ft 121kts
12-Sep-20 12:54 34.394667 -117.456555 146 8119ft 122kts
12-Sep-20 12:55 34.365295 -117.435131 146 8098ft 123kts
12-Sep-20 12:56 34.335856 -117.413801 146 8078ft 123kts
12-Sep-20 12:57 34.306124 -117.392378 146 8058ft 123kts
12-Sep-20 12:58 34.276350 -117.371020 146 8037ft 123kts
12-Sep-20 12:59 34.246641 -117.349782 146 8016ft 122kts
12-Sep-20 13:00 34.215382 -117.346946 211 8009ft 128kts
12-Sep-20 13:01 34.184168 -117.368055 206 8009ft 127kts
12-Sep-20 13:02 34.152542 -117.388081 206 8008ft 128kts
12-Sep-20 13:03 34.120591 -117.408043 206 8007ft 128kts
12-Sep-20 13:04 34.088642 -117.427931 206 8005ft 129kts
12-Sep-20 13:05 34.056652 -117.447823 206 8000ft 127kts
12-Sep-20 13:07 34.025529 -117.467157 206 7996ft 124kts
12-Sep-20 13:08 33.994578 -117.486361 206 7991ft 124kts
12-Sep-20 13:09 33.963887 -117.505389 206 7988ft 124kts
12-Sep-20 13:10 33.933023 -117.524510 206 7984ft 124kts
12-Sep-20 13:11 33.902001 -117.516698 147 7984ft 118kts
12-Sep-20 13:12 33.874016 -117.495762 143 7984ft 117kts
12-Sep-20 13:13 33.846788 -117.473606 142 7987ft 117kts
12-Sep-20 13:14 33.819958 -117.451338 141 7991ft 116kts
12-Sep-20 13:15 33.793213 -117.429042 141 7996ft 116kts
12-Sep-20 13:16 33.766563 -117.406813 142 8002ft 116kts
12-Sep-20 13:17 33.739953 -117.384627 142 8006ft 115kts
12-Sep-20 13:18 33.713343 -117.362457 142 8008ft 115kts
12-Sep-20 13:19 33.686754 -117.340322 142 8008ft 115kts
12-Sep-20 13:20 33.659972 -117.318041 142 8006ft 116kts
12-Sep-20 13:21 33.633198 -117.295784 141 8004ft 117kts
12-Sep-20 13:22 33.606571 -117.272801 139 8002ft 117kts
12-Sep-20 13:23 33.579949 -117.249486 141 7996ft 118kts
12-Sep-20 13:24 33.553623 -117.227511 146 7986ft 111kts
12-Sep-20 13:24 33.532608 -117.210093 145 7980ft 109kts
12-Sep-20 13:25 33.507692 -117.189432 145 7973ft 108kts
12-Sep-20 13:27 33.478589 -117.165748 155 7963ft 108kts
12-Sep-20 13:27 33.454100 -117.158368 168 7923ft 112kts
12-Sep-20 13:28 33.419498 -117.151516 169 6938ft 131kts
12-Sep-20 13:29 33.383274 -117.143583 169 5930ft 132kts
12-Sep-20 13:31 33.341118 -117.133191 169 4751ft 132kts
12-Sep-20 13:31 33.311095 -117.125039 169 3991ft 129kts
12-Sep-20 13:32 33.280290 -117.110032 158 3969ft 115kts
12-Sep-20 13:33 33.249130 -117.095509 159 3975ft 122kts
12-Sep-20 13:34 33.217156 -117.080705 159 3977ft 123kts
12-Sep-20 13:35 33.183620 -117.065199 159 3544ft 139kts
12-Sep-20 13:36 33.157035 -117.083782 251 3275ft 111kts
12-Sep-20 13:37 33.151622 -117.118426 267 3273ft 103kts
12-Sep-20 13:38 33.150200 -117.152670 258 3229ft 101kts
12-Sep-20 13:39 33.144470 -117.184667 252 2637ft 87kts
12-Sep-20 13:40 33.137990 -117.214285 263 1844ft 100kts
12-Sep-20 13:41 33.134254 -117.241359 256 1039ft 71kts
12-Sep-20 13:42 33.130605 -117.264144 264 567ft 61kts
12-Sep-20 13:43 33.128506 -117.278399 259 318ft 18kts
12-Sep-20 13:44 33.127654 -117.279810 225 318ft 4kts
12-Sep-20 13:45 33.126673 -117.282330 206 324ft 3kts
12-Sep-20 13:46 33.126462 -117.282616 256 325ft 0kts
12-Sep-20 13:47 33.126462 -117.282616 256 325ft 0kts
12-Sep-20 13:48 33.126594 -117.282746 78 325ft 0kts
12-Sep-20 13:49 33.126594 -117.282746 78 325ft 0kts
12-Sep-20 13:50 33.126594 -117.282746 78 325ft 0kts
12-Sep-20 13:51 33.126594 -117.282746 78 325ft 0kts
12-Sep-20 13:52 33.126594 -117.282746 78 325ft 0kts
12-Sep-20 13:53 33.126594 -117.282746 78 325ft 0kts
12-Sep-20 13:54 33.126594 -117.282746 78 325ft 0kts
12-Sep-20 13:55 33.126594 -117.282746 78 325ft 0kts
12-Sep-20 13:56 33.126594 -117.282746 78 325ft 0kts
12-Sep-20 13:57 33.126594 -117.282746 78 325ft 0kts

Navigation Log

Ident Type
Flight plan parsing failed, navigation log unavailable